sensor_id;sensor_type;location;lat;lon;timestamp;temperature;humidity
65122;HTU21D;51701;45.036;38.924;2022-11-20T07:40:56;12.77;93.02
65122;HTU21D;51701;45.036;38.924;2022-11-20T07:43:23;12.75;92.79
65122;HTU21D;51701;45.036;38.924;2022-11-20T07:45:49;12.62;94.08
65122;HTU21D;51701;45.036;38.924;2022-11-20T07:48:14;12.50;94.62
65122;HTU21D;51701;45.036;38.924;2022-11-20T07:50:40;12.48;95.06
65122;HTU21D;51701;45.036;38.924;2022-11-20T07:53:06;12.47;94.94
65122;HTU21D;51701;45.036;38.924;2022-11-20T07:55:31;12.49;95.26
65122;HTU21D;51701;45.036;38.924;2022-11-20T07:57:57;12.56;95.23
65122;HTU21D;51701;45.036;38.924;2022-11-20T08:00:24;12.65;95.02
65122;HTU21D;51701;45.036;38.924;2022-11-20T08:02:50;12.73;94.78
65122;HTU21D;51701;45.036;38.924;2022-11-20T08:05:15;12.85;94.75
65122;HTU21D;51701;45.036;38.924;2022-11-20T08:07:42;12.94;94.03
65122;HTU21D;51701;45.036;38.924;2022-11-20T08:10:09;13.04;93.66
65122;HTU21D;51701;45.036;38.924;2022-11-20T08:12:35;13.14;92.81
65122;HTU21D;51701;45.036;38.924;2022-11-20T08:15:19;13.20;92.36
65122;HTU21D;51701;45.036;38.924;2022-11-20T08:17:45;13.24;91.79
65122;HTU21D;51701;45.036;38.924;2022-11-20T08:20:10;13.30;91.34
65122;HTU21D;51701;45.036;38.924;2022-11-20T08:22:36;13.35;90.13
65122;HTU21D;51701;45.036;38.924;2022-11-20T08:25:02;13.37;90.01
65122;HTU21D;51701;45.036;38.924;2022-11-20T08:27:27;13.40;89.99
65122;HTU21D;51701;45.036;38.924;2022-11-20T08:29:53;13.40;90.31
65122;HTU21D;51701;45.036;38.924;2022-11-20T08:32:19;13.39;90.63
65122;HTU21D;51701;45.036;38.924;2022-11-20T08:34:44;13.36;91.18
65122;HTU21D;51701;45.036;38.924;2022-11-20T08:37:11;13.33;91.62
65122;HTU21D;51701;45.036;38.924;2022-11-20T08:39:37;13.32;91.87
65122;HTU21D;51701;45.036;38.924;2022-11-20T08:42:06;13.32;91.94
65122;HTU21D;51701;45.036;38.924;2022-11-20T08:44:32;13.33;92.28
65122;HTU21D;51701;45.036;38.924;2022-11-20T08:46:58;13.32;92.50
65122;HTU21D;51701;45.036;38.924;2022-11-20T08:49:23;13.32;92.88
65122;HTU21D;51701;45.036;38.924;2022-11-20T08:51:49;13.32;92.80
65122;HTU21D;51701;45.036;38.924;2022-11-20T08:54:18;13.39;92.75
65122;HTU21D;51701;45.036;38.924;2022-11-20T08:56:47;13.49;92.46
65122;HTU21D;51701;45.036;38.924;2022-11-20T08:59:13;13.61;91.53
65122;HTU21D;51701;45.036;38.924;2022-11-20T09:01:38;13.73;91.24
65122;HTU21D;51701;45.036;38.924;2022-11-20T09:04:04;13.85;90.88
65122;HTU21D;51701;45.036;38.924;2022-11-20T09:06:30;13.95;90.08
65122;HTU21D;51701;45.036;38.924;2022-11-20T09:08:56;14.07;90.05
65122;HTU21D;51701;45.036;38.924;2022-11-20T09:11:22;14.17;89.58
65122;HTU21D;51701;45.036;38.924;2022-11-20T09:13:48;14.26;89.50
65122;HTU21D;51701;45.036;38.924;2022-11-20T09:16:13;14.36;89.21
65122;HTU21D;51701;45.036;38.924;2022-11-20T09:18:39;14.49;88.83
65122;HTU21D;51701;45.036;38.924;2022-11-20T09:21:06;14.60;88.32
65122;HTU21D;51701;45.036;38.924;2022-11-20T09:23:33;14.67;87.98
65122;HTU21D;51701;45.036;38.924;2022-11-20T09:26:06;14.74;87.75
65122;HTU21D;51701;45.036;38.924;2022-11-20T09:28:32;14.84;87.65
65122;HTU21D;51701;45.036;38.924;2022-11-20T09:30:58;14.98;87.37
65122;HTU21D;51701;45.036;38.924;2022-11-20T09:33:24;15.08;86.28
65122;HTU21D;51701;45.036;38.924;2022-11-20T09:35:49;15.10;86.26
65122;HTU21D;51701;45.036;38.924;2022-11-20T09:38:15;15.13;86.06
65122;HTU21D;51701;45.036;38.924;2022-11-20T09:40:47;15.15;86.08
65122;HTU21D;51701;45.036;38.924;2022-11-20T09:43:17;15.16;86.32
65122;HTU21D;51701;45.036;38.924;2022-11-20T09:50:49;15.15;86.21
65122;HTU21D;51701;45.036;38.924;2022-11-20T09:53:27;15.11;86.21
65122;HTU21D;51701;45.036;38.924;2022-11-20T09:55:55;15.07;85.80
65122;HTU21D;51701;45.036;38.924;2022-11-20T09:58:29;15.06;86.21
65122;HTU21D;51701;45.036;38.924;2022-11-20T10:01:09;15.04;86.08
65122;HTU21D;51701;45.036;38.924;2022-11-20T10:06:05;15.04;85.78
65122;HTU21D;51701;45.036;38.924;2022-11-20T10:30:20;15.67;83.98
65122;HTU21D;51701;45.036;38.924;2022-11-20T10:32:53;15.66;83.45
65122;HTU21D;51701;45.036;38.924;2022-11-20T10:35:24;15.62;83.77
65122;HTU21D;51701;45.036;38.924;2022-11-20T10:37:54;15.61;83.74
65122;HTU21D;51701;45.036;38.924;2022-11-20T10:40:39;15.65;84.04
65122;HTU21D;51701;45.036;38.924;2022-11-20T10:51:30;16.01;83.33
65122;HTU21D;51701;45.036;38.924;2022-11-20T10:53:51;16.07;82.41
65122;HTU21D;51701;45.036;38.924;2022-11-20T10:56:34;16.12;82.39
65122;HTU21D;51701;45.036;38.924;2022-11-20T11:01:41;16.21;82.06
65122;HTU21D;51701;45.036;38.924;2022-11-20T11:04:18;16.22;82.32
65122;HTU21D;51701;45.036;38.924;2022-11-20T11:06:47;16.19;81.68
65122;HTU21D;51701;45.036;38.924;2022-11-20T11:09:17;16.18;82.26
65122;HTU21D;51701;45.036;38.924;2022-11-20T11:11:45;16.19;82.26
65122;HTU21D;51701;45.036;38.924;2022-11-20T11:14:14;16.18;82.35
65122;HTU21D;51701;45.036;38.924;2022-11-20T11:16:48;16.19;82.13
65122;HTU21D;51701;45.036;38.924;2022-11-20T11:19:14;16.22;82.02
65122;HTU21D;51701;45.036;38.924;2022-11-20T11:21:46;16.22;82.40
65122;HTU21D;51701;45.036;38.924;2022-11-20T11:24:19;16.26;82.49
65122;HTU21D;51701;45.036;38.924;2022-11-20T11:27:00;16.29;82.12
65122;HTU21D;51701;45.036;38.924;2022-11-20T11:29:30;16.30;82.59
65122;HTU21D;51701;45.036;38.924;2022-11-20T11:32:06;16.31;82.57
65122;HTU21D;51701;45.036;38.924;2022-11-20T11:34:32;16.33;82.66
65122;HTU21D;51701;45.036;38.924;2022-11-20T11:36:57;16.36;82.38
65122;HTU21D;51701;45.036;38.924;2022-11-20T11:39:24;16.42;82.44
65122;HTU21D;51701;45.036;38.924;2022-11-20T11:41:50;16.46;82.62
65122;HTU21D;51701;45.036;38.924;2022-11-20T11:47:01;16.52;82.70
65122;HTU21D;51701;45.036;38.924;2022-11-20T11:49:27;16.57;82.62
65122;HTU21D;51701;45.036;38.924;2022-11-20T11:54:50;16.63;82.53
65122;HTU21D;51701;45.036;38.924;2022-11-20T12:04:59;16.84;81.66
65122;HTU21D;51701;45.036;38.924;2022-11-20T12:07:42;16.89;81.60
65122;HTU21D;51701;45.036;38.924;2022-11-20T12:10:53;16.91;81.56
65122;HTU21D;51701;45.036;38.924;2022-11-20T12:15:43;16.96;81.13
65122;HTU21D;51701;45.036;38.924;2022-11-20T12:18:13;17.00;81.23
65122;HTU21D;51701;45.036;38.924;2022-11-20T12:20:41;17.01;80.94
65122;HTU21D;51701;45.036;38.924;2022-11-20T12:23:11;17.04;80.96
65122;HTU21D;51701;45.036;38.924;2022-11-20T12:25:39;17.06;81.17
65122;HTU21D;51701;45.036;38.924;2022-11-20T12:30:33;17.07;80.85
65122;HTU21D;51701;45.036;38.924;2022-11-20T12:33:17;17.10;80.33
65122;HTU21D;51701;45.036;38.924;2022-11-20T12:36:06;17.15;79.91
65122;HTU21D;51701;45.036;38.924;2022-11-20T12:38:45;17.19;80.91
65122;HTU21D;51701;45.036;38.924;2022-11-20T12:43:58;17.23;76.50
65122;HTU21D;51701;45.036;38.924;2022-11-20T12:46:46;17.36;77.43
65122;HTU21D;51701;45.036;38.924;2022-11-20T12:51:48;17.53;79.08
65122;HTU21D;51701;45.036;38.924;2022-11-20T12:57:05;17.47;80.43
65122;HTU21D;51701;45.036;38.924;2022-11-20T13:04:48;17.48;81.39
65122;HTU21D;51701;45.036;38.924;2022-11-20T13:07:18;17.48;81.40
65122;HTU21D;51701;45.036;38.924;2022-11-20T13:09:46;17.48;81.48
65122;HTU21D;51701;45.036;38.924;2022-11-20T13:17:40;17.75;81.14
65122;HTU21D;51701;45.036;38.924;2022-11-20T13:20:15;17.85;81.01
65122;HTU21D;51701;45.036;38.924;2022-11-20T13:22:45;17.95;80.67
65122;HTU21D;51701;45.036;38.924;2022-11-20T13:25:27;18.00;81.08
65122;HTU21D;51701;45.036;38.924;2022-11-20T13:27:54;18.05;81.18
65122;HTU21D;51701;45.036;38.924;2022-11-20T13:30:20;18.10;80.30
65122;HTU21D;51701;45.036;38.924;2022-11-20T13:32:48;18.18;80.65
65122;HTU21D;51701;45.036;38.924;2022-11-20T13:35:23;18.20;80.62
65122;HTU21D;51701;45.036;38.924;2022-11-20T13:37:49;18.23;79.22
65122;HTU21D;51701;45.036;38.924;2022-11-20T13:40:24;18.26;79.22
65122;HTU21D;51701;45.036;38.924;2022-11-20T13:45:31;18.25;78.53
65122;HTU21D;51701;45.036;38.924;2022-11-20T13:47:59;18.21;79.30
65122;HTU21D;51701;45.036;38.924;2022-11-20T13:50:39;18.15;76.75
65122;HTU21D;51701;45.036;38.924;2022-11-20T13:55:39;18.18;79.25
65122;HTU21D;51701;45.036;38.924;2022-11-20T13:58:23;18.11;78.21
65122;HTU21D;51701;45.036;38.924;2022-11-20T14:00:58;18.06;78.91
65122;HTU21D;51701;45.036;38.924;2022-11-20T14:03:24;17.97;79.91
65122;HTU21D;51701;45.036;38.924;2022-11-20T14:06:33;17.90;79.69
65122;HTU21D;51701;45.036;38.924;2022-11-20T14:11:05;17.76;79.90
65122;HTU21D;51701;45.036;38.924;2022-11-20T14:13:31;17.70;78.16
65122;HTU21D;51701;45.036;38.924;2022-11-20T14:15:57;17.70;77.85
65122;HTU21D;51701;45.036;38.924;2022-11-20T14:18:25;17.67;69.48
65122;HTU21D;51701;45.036;38.924;2022-11-20T14:20:51;17.79;65.86
65122;HTU21D;51701;45.036;38.924;2022-11-20T14:23:23;17.81;71.35
65122;HTU21D;51701;45.036;38.924;2022-11-20T14:25:49;17.76;71.12
65122;HTU21D;51701;45.036;38.924;2022-11-20T14:28:24;17.72;68.19
65122;HTU21D;51701;45.036;38.924;2022-11-20T14:30:50;17.63;72.54
65122;HTU21D;51701;45.036;38.924;2022-11-20T14:33:16;17.51;73.15
65122;HTU21D;51701;45.036;38.924;2022-11-20T14:35:47;17.44;74.05
65122;HTU21D;51701;45.036;38.924;2022-11-20T14:38:14;17.32;74.44
65122;HTU21D;51701;45.036;38.924;2022-11-20T14:40:40;17.19;73.93
65122;HTU21D;51701;45.036;38.924;2022-11-20T14:43:21;17.09;74.35
65122;HTU21D;51701;45.036;38.924;2022-11-20T14:45:49;17.01;74.20
65122;HTU21D;51701;45.036;38.924;2022-11-20T14:48:17;16.98;74.71
65122;HTU21D;51701;45.036;38.924;2022-11-20T14:50:43;16.89;74.89
65122;HTU21D;51701;45.036;38.924;2022-11-20T14:53:09;16.80;75.26
65122;HTU21D;51701;45.036;38.924;2022-11-20T14:55:35;16.74;75.43
65122;HTU21D;51701;45.036;38.924;2022-11-20T14:58:06;16.66;75.51
65122;HTU21D;51701;45.036;38.924;2022-11-20T15:00:33;16.58;75.75
65122;HTU21D;51701;45.036;38.924;2022-11-20T15:02:59;16.55;75.83
65122;HTU21D;51701;45.036;38.924;2022-11-20T15:05:26;16.51;75.20
65122;HTU21D;51701;45.036;38.924;2022-11-20T15:08:10;16.51;75.29
65122;HTU21D;51701;45.036;38.924;2022-11-20T15:10:36;16.51;75.62
65122;HTU21D;51701;45.036;38.924;2022-11-20T15:13:11;16.49;75.34
65122;HTU21D;51701;45.036;38.924;2022-11-20T15:15:50;16.51;75.56
65122;HTU21D;51701;45.036;38.924;2022-11-20T15:18:19;16.49;75.71
65122;HTU21D;51701;45.036;38.924;2022-11-20T15:20:46;16.49;75.70
65122;HTU21D;51701;45.036;38.924;2022-11-20T15:23:13;16.49;75.45
65122;HTU21D;51701;45.036;38.924;2022-11-20T15:25:39;16.50;75.70
65122;HTU21D;51701;45.036;38.924;2022-11-20T15:28:10;16.52;75.28
65122;HTU21D;51701;45.036;38.924;2022-11-20T15:30:38;16.55;75.05
65122;HTU21D;51701;45.036;38.924;2022-11-20T15:33:04;16.55;75.79
65122;HTU21D;51701;45.036;38.924;2022-11-20T15:35:30;16.54;75.45
65122;HTU21D;51701;45.036;38.924;2022-11-20T15:37:55;16.51;75.24
65122;HTU21D;51701;45.036;38.924;2022-11-20T15:40:21;16.48;75.86
65122;HTU21D;51701;45.036;38.924;2022-11-20T15:42:47;16.48;75.11
65122;HTU21D;51701;45.036;38.924;2022-11-20T15:48:31;16.49;75.28
65122;HTU21D;51701;45.036;38.924;2022-11-20T15:51:01;16.52;74.72
65122;HTU21D;51701;45.036;38.924;2022-11-20T15:53:28;16.51;74.94
65122;HTU21D;51701;45.036;38.924;2022-11-20T15:55:53;16.49;74.31
65122;HTU21D;51701;45.036;38.924;2022-11-20T15:58:19;16.47;75.25
65122;HTU21D;51701;45.036;38.924;2022-11-20T16:00:45;16.45;75.44
65122;HTU21D;51701;45.036;38.924;2022-11-20T16:03:12;16.43;75.29
65122;HTU21D;51701;45.036;38.924;2022-11-20T16:05:37;16.37;75.65
65122;HTU21D;51701;45.036;38.924;2022-11-20T16:08:03;16.34;76.03
65122;HTU21D;51701;45.036;38.924;2022-11-20T16:10:29;16.29;76.07
65122;HTU21D;51701;45.036;38.924;2022-11-20T16:12:55;16.24;76.35
65122;HTU21D;51701;45.036;38.924;2022-11-20T16:15:39;16.17;76.18
65122;HTU21D;51701;45.036;38.924;2022-11-20T16:18:11;16.14;76.09
65122;HTU21D;51701;45.036;38.924;2022-11-20T16:20:37;16.12;76.37
65122;HTU21D;51701;45.036;38.924;2022-11-20T16:23:03;16.10;76.28
65122;HTU21D;51701;45.036;38.924;2022-11-20T16:25:29;16.07;76.70
65122;HTU21D;51701;45.036;38.924;2022-11-20T16:27:55;16.05;76.53
65122;HTU21D;51701;45.036;38.924;2022-11-20T16:30:20;16.01;76.60
65122;HTU21D;51701;45.036;38.924;2022-11-20T16:32:46;15.99;77.08
65122;HTU21D;51701;45.036;38.924;2022-11-20T16:35:12;16.02;76.89
65122;HTU21D;51701;45.036;38.924;2022-11-20T16:37:37;15.99;77.13
65122;HTU21D;51701;45.036;38.924;2022-11-20T16:40:05;15.98;77.29
65122;HTU21D;51701;45.036;38.924;2022-11-20T16:42:34;15.99;77.28
65122;HTU21D;51701;45.036;38.924;2022-11-20T16:45:00;16.03;77.25
65122;HTU21D;51701;45.036;38.924;2022-11-20T16:47:25;16.07;77.01
65122;HTU21D;51701;45.036;38.924;2022-11-20T16:49:51;16.11;76.97
65122;HTU21D;51701;45.036;38.924;2022-11-20T16:52:17;16.16;76.98
65122;HTU21D;51701;45.036;38.924;2022-11-20T16:54:43;16.19;76.68
65122;HTU21D;51701;45.036;38.924;2022-11-20T16:57:08;16.25;77.02
65122;HTU21D;51701;45.036;38.924;2022-11-20T16:59:34;16.25;76.90
65122;HTU21D;51701;45.036;38.924;2022-11-20T17:02:00;16.26;77.16
65122;HTU21D;51701;45.036;38.924;2022-11-20T17:04:25;16.26;74.70
65122;HTU21D;51701;45.036;38.924;2022-11-20T17:06:51;16.30;76.34
65122;HTU21D;51701;45.036;38.924;2022-11-20T17:09:17;16.29;76.30
65122;HTU21D;51701;45.036;38.924;2022-11-20T17:11:47;16.27;76.45
65122;HTU21D;51701;45.036;38.924;2022-11-20T17:14:12;16.25;76.16
65122;HTU21D;51701;45.036;38.924;2022-11-20T17:16:38;16.22;76.46
65122;HTU21D;51701;45.036;38.924;2022-11-20T17:19:07;16.19;76.59
65122;HTU21D;51701;45.036;38.924;2022-11-20T17:21:33;16.17;76.74
65122;HTU21D;51701;45.036;38.924;2022-11-20T17:24:04;16.15;76.95
65122;HTU21D;51701;45.036;38.924;2022-11-20T17:26:31;16.13;77.04
65122;HTU21D;51701;45.036;38.924;2022-11-20T17:28:58;16.13;77.08
65122;HTU21D;51701;45.036;38.924;2022-11-20T17:31:27;16.13;77.16
65122;HTU21D;51701;45.036;38.924;2022-11-20T17:33:53;16.13;77.18
65122;HTU21D;51701;45.036;38.924;2022-11-20T17:36:19;16.13;77.15
65122;HTU21D;51701;45.036;38.924;2022-11-20T17:38:45;16.13;76.82
65122;HTU21D;51701;45.036;38.924;2022-11-20T17:41:12;16.14;77.09
65122;HTU21D;51701;45.036;38.924;2022-11-20T17:43:39;16.12;77.00
65122;HTU21D;51701;45.036;38.924;2022-11-20T17:48:36;16.08;77.07
65122;HTU21D;51701;45.036;38.924;2022-11-20T17:51:03;16.06;77.18
65122;HTU21D;51701;45.036;38.924;2022-11-20T17:53:33;16.04;77.47
65122;HTU21D;51701;45.036;38.924;2022-11-20T17:55:59;16.03;77.32
65122;HTU21D;51701;45.036;38.924;2022-11-20T17:58:43;16.08;76.88
65122;HTU21D;51701;45.036;38.924;2022-11-20T18:01:09;16.12;76.23
65122;HTU21D;51701;45.036;38.924;2022-11-20T18:03:35;16.10;76.52
65122;HTU21D;51701;45.036;38.924;2022-11-20T18:06:14;16.07;76.85
65122;HTU21D;51701;45.036;38.924;2022-11-20T18:08:40;16.02;77.10
65122;HTU21D;51701;45.036;38.924;2022-11-20T18:11:10;15.99;77.26
65122;HTU21D;51701;45.036;38.924;2022-11-20T18:13:35;15.93;77.32
65122;HTU21D;51701;45.036;38.924;2022-11-20T18:16:20;15.88;77.31
65122;HTU21D;51701;45.036;38.924;2022-11-20T18:18:45;15.85;77.50
65122;HTU21D;51701;45.036;38.924;2022-11-20T18:21:11;15.83;77.31
65122;HTU21D;51701;45.036;38.924;2022-11-20T18:23:37;15.80;77.43
65122;HTU21D;51701;45.036;38.924;2022-11-20T18:26:02;15.77;77.63
65122;HTU21D;51701;45.036;38.924;2022-11-20T18:28:28;15.73;77.63
65122;HTU21D;51701;45.036;38.924;2022-11-20T18:30:54;15.68;77.71
65122;HTU21D;51701;45.036;38.924;2022-11-20T18:33:19;15.66;77.69
65122;HTU21D;51701;45.036;38.924;2022-11-20T18:35:45;15.63;77.64
65122;HTU21D;51701;45.036;38.924;2022-11-20T18:38:11;15.59;77.39
65122;HTU21D;51701;45.036;38.924;2022-11-20T18:40:36;15.62;77.56
65122;HTU21D;51701;45.036;38.924;2022-11-20T18:43:02;15.61;77.50
65122;HTU21D;51701;45.036;38.924;2022-11-20T18:45:46;15.62;77.50
65122;HTU21D;51701;45.036;38.924;2022-11-20T18:48:12;15.66;77.50
65122;HTU21D;51701;45.036;38.924;2022-11-20T18:50:38;15.68;77.65
65122;HTU21D;51701;45.036;38.924;2022-11-20T18:53:03;15.70;77.51
65122;HTU21D;51701;45.036;38.924;2022-11-20T18:55:29;15.74;77.23
65122;HTU21D;51701;45.036;38.924;2022-11-20T18:57:55;15.75;77.36
65122;HTU21D;51701;45.036;38.924;2022-11-20T19:00:21;15.76;77.06
65122;HTU21D;51701;45.036;38.924;2022-11-20T19:02:47;15.77;77.16
65122;HTU21D;51701;45.036;38.924;2022-11-20T19:05:13;15.80;77.18
65122;HTU21D;51701;45.036;38.924;2022-11-20T19:07:39;15.80;77.35
65122;HTU21D;51701;45.036;38.924;2022-11-20T19:10:05;15.80;77.27
65122;HTU21D;51701;45.036;38.924;2022-11-20T19:12:31;15.81;77.65
65122;HTU21D;51701;45.036;38.924;2022-11-20T19:14:57;15.82;77.46
65122;HTU21D;51701;45.036;38.924;2022-11-20T19:17:22;15.81;77.19
65122;HTU21D;51701;45.036;38.924;2022-11-20T19:19:48;15.82;77.30
65122;HTU21D;51701;45.036;38.924;2022-11-20T19:22:15;15.82;77.22
65122;HTU21D;51701;45.036;38.924;2022-11-20T19:24:43;15.82;77.38
65122;HTU21D;51701;45.036;38.924;2022-11-20T19:27:08;15.82;77.26
65122;HTU21D;51701;45.036;38.924;2022-11-20T19:29:34;15.84;77.15
65122;HTU21D;51701;45.036;38.924;2022-11-20T19:32:00;15.85;76.94
65122;HTU21D;51701;45.036;38.924;2022-11-20T19:34:25;15.85;77.11
65122;HTU21D;51701;45.036;38.924;2022-11-20T19:36:51;15.85;77.25
65122;HTU21D;51701;45.036;38.924;2022-11-20T19:39:17;15.84;77.12
65122;HTU21D;51701;45.036;38.924;2022-11-20T19:41:43;15.83;77.24
65122;HTU21D;51701;45.036;38.924;2022-11-20T19:44:12;15.84;76.87
65122;HTU21D;51701;45.036;38.924;2022-11-20T19:46:38;15.85;76.92
65122;HTU21D;51701;45.036;38.924;2022-11-20T19:49:05;15.85;76.60
65122;HTU21D;51701;45.036;38.924;2022-11-20T19:51:33;15.85;77.01
65122;HTU21D;51701;45.036;38.924;2022-11-20T19:53:59;15.86;77.01
65122;HTU21D;51701;45.036;38.924;2022-11-20T19:56:26;15.86;76.98
65122;HTU21D;51701;45.036;38.924;2022-11-20T19:58:52;15.84;76.91
65122;HTU21D;51701;45.036;38.924;2022-11-20T20:01:19;15.87;77.08
65122;HTU21D;51701;45.036;38.924;2022-11-20T20:03:45;15.88;77.12
65122;HTU21D;51701;45.036;38.924;2022-11-20T20:06:13;15.92;76.89
65122;HTU21D;51701;45.036;38.924;2022-11-20T20:08:40;15.95;77.09
65122;HTU21D;51701;45.036;38.924;2022-11-20T20:11:09;15.97;76.93
65122;HTU21D;51701;45.036;38.924;2022-11-20T20:13:35;16.01;77.20
65122;HTU21D;51701;45.036;38.924;2022-11-20T20:16:01;16.04;76.43
65122;HTU21D;51701;45.036;38.924;2022-11-20T20:18:29;16.13;75.44
65122;HTU21D;51701;45.036;38.924;2022-11-20T20:21:00;16.20;75.68
65122;HTU21D;51701;45.036;38.924;2022-11-20T20:23:25;16.21;76.14
65122;HTU21D;51701;45.036;38.924;2022-11-20T20:25:51;16.20;76.44
65122;HTU21D;51701;45.036;38.924;2022-11-20T20:28:17;16.19;76.51
65122;HTU21D;51701;45.036;38.924;2022-11-20T20:30:42;16.20;76.52
65122;HTU21D;51701;45.036;38.924;2022-11-20T20:33:08;16.21;73.73
65122;HTU21D;51701;45.036;38.924;2022-11-20T20:35:34;16.24;75.40
65122;HTU21D;51701;45.036;38.924;2022-11-20T20:38:04;16.22;73.61
65122;HTU21D;51701;45.036;38.924;2022-11-20T20:40:29;16.17;74.25
65122;HTU21D;51701;45.036;38.924;2022-11-20T20:42:55;16.11;74.67
65122;HTU21D;51701;45.036;38.924;2022-11-20T20:45:21;16.01;74.80
65122;HTU21D;51701;45.036;38.924;2022-11-20T20:47:46;15.92;75.20
65122;HTU21D;51701;45.036;38.924;2022-11-20T20:50:12;15.84;75.50
65122;HTU21D;51701;45.036;38.924;2022-11-20T20:52:38;15.74;75.74
65122;HTU21D;51701;45.036;38.924;2022-11-20T20:55:04;15.73;75.75
65122;HTU21D;51701;45.036;38.924;2022-11-20T20:57:29;15.80;74.27
65122;HTU21D;51701;45.036;38.924;2022-11-20T20:59:55;15.91;72.00
65122;HTU21D;51701;45.036;38.924;2022-11-20T21:02:21;15.99;74.04
65122;HTU21D;51701;45.036;38.924;2022-11-20T21:04:47;15.93;74.47
65122;HTU21D;51701;45.036;38.924;2022-11-20T21:07:13;15.91;74.74
65122;HTU21D;51701;45.036;38.924;2022-11-20T21:09:39;15.87;74.89
65122;HTU21D;51701;45.036;38.924;2022-11-20T21:12:04;15.85;74.95
65122;HTU21D;51701;45.036;38.924;2022-11-20T21:14:30;15.85;75.21
65122;HTU21D;51701;45.036;38.924;2022-11-20T21:16:56;15.85;75.29
65122;HTU21D;51701;45.036;38.924;2022-11-20T21:19:22;15.89;75.12
65122;HTU21D;51701;45.036;38.924;2022-11-20T21:21:47;15.96;75.46
65122;HTU21D;51701;45.036;38.924;2022-11-20T21:24:31;16.07;75.12
65122;HTU21D;51701;45.036;38.924;2022-11-20T21:26:57;16.15;74.61
65122;HTU21D;51701;45.036;38.924;2022-11-20T21:29:24;16.24;75.12
65122;HTU21D;51701;45.036;38.924;2022-11-20T21:31:49;16.32;74.12
65122;HTU21D;51701;45.036;38.924;2022-11-20T21:34:16;16.41;74.42
65122;HTU21D;51701;45.036;38.924;2022-11-20T21:36:41;0.00;74.83
65122;HTU21D;51701;45.036;38.924;2022-11-20T21:39:08;16.54;74.26
65122;HTU21D;51701;45.036;38.924;2022-11-20T21:41:34;16.59;74.88
65122;HTU21D;51701;45.036;38.924;2022-11-20T21:44:00;16.66;74.51
65122;HTU21D;51701;45.036;38.924;2022-11-20T21:46:28;16.70;74.39
65122;HTU21D;51701;45.036;38.924;2022-11-20T21:48:53;16.73;74.95
65122;HTU21D;51701;45.036;38.924;2022-11-20T21:51:20;16.72;74.90
65122;HTU21D;51701;45.036;38.924;2022-11-20T21:53:46;16.71;74.99
65122;HTU21D;51701;45.036;38.924;2022-11-20T21:56:13;16.70;75.24
65122;HTU21D;51701;45.036;38.924;2022-11-20T21:58:40;16.70;75.38
65122;HTU21D;51701;45.036;38.924;2022-11-20T22:01:06;16.66;75.59
65122;HTU21D;51701;45.036;38.924;2022-11-20T22:03:32;16.67;75.13
65122;HTU21D;51701;45.036;38.924;2022-11-20T22:05:57;16.67;75.50
65122;HTU21D;51701;45.036;38.924;2022-11-20T22:08:24;16.63;75.69
65122;HTU21D;51701;45.036;38.924;2022-11-20T22:10:56;16.59;75.83
65122;HTU21D;51701;45.036;38.924;2022-11-20T22:13:23;16.52;75.99
65122;HTU21D;51701;45.036;38.924;2022-11-20T22:16:07;16.46;76.02
65122;HTU21D;51701;45.036;38.924;2022-11-20T22:18:40;16.39;76.15
65122;HTU21D;51701;45.036;38.924;2022-11-20T22:21:05;16.35;76.31
65122;HTU21D;51701;45.036;38.924;2022-11-20T22:23:34;16.34;76.25
65122;HTU21D;51701;45.036;38.924;2022-11-20T22:26:09;16.33;76.22
65122;HTU21D;51701;45.036;38.924;2022-11-20T22:28:35;16.32;76.18
65122;HTU21D;51701;45.036;38.924;2022-11-20T22:31:02;16.28;76.18
65122;HTU21D;51701;45.036;38.924;2022-11-20T22:33:29;16.21;76.16
65122;HTU21D;51701;45.036;38.924;2022-11-20T22:35:58;16.17;76.22
65122;HTU21D;51701;45.036;38.924;2022-11-20T22:38:24;16.12;76.24
65122;HTU21D;51701;45.036;38.924;2022-11-20T22:40:50;16.06;76.28
65122;HTU21D;51701;45.036;38.924;2022-11-20T22:43:15;16.04;76.31
65122;HTU21D;51701;45.036;38.924;2022-11-20T22:45:41;16.03;76.12
65122;HTU21D;51701;45.036;38.924;2022-11-20T22:48:07;16.05;76.31
65122;HTU21D;51701;45.036;38.924;2022-11-20T22:50:33;16.07;76.38
65122;HTU21D;51701;45.036;38.924;2022-11-20T22:52:58;16.08;76.12
65122;HTU21D;51701;45.036;38.924;2022-11-20T22:55:24;16.13;75.86
65122;HTU21D;51701;45.036;38.924;2022-11-20T22:57:50;16.12;76.13
65122;HTU21D;51701;45.036;38.924;2022-11-20T23:00:16;16.11;76.13
65122;HTU21D;51701;45.036;38.924;2022-11-20T23:02:44;16.10;76.01
65122;HTU21D;51701;45.036;38.924;2022-11-20T23:05:11;16.11;75.72
65122;HTU21D;51701;45.036;38.924;2022-11-20T23:07:37;16.16;75.24
65122;HTU21D;51701;45.036;38.924;2022-11-20T23:10:02;16.17;75.30
65122;HTU21D;51701;45.036;38.924;2022-11-20T23:12:28;16.19;75.25
65122;HTU21D;51701;45.036;38.924;2022-11-20T23:14:54;16.16;75.36
65122;HTU21D;51701;45.036;38.924;2022-11-20T23:17:20;16.12;74.83
65122;HTU21D;51701;45.036;38.924;2022-11-20T23:19:45;16.08;74.92
65122;HTU21D;51701;45.036;38.924;2022-11-20T23:22:11;16.06;74.99
65122;HTU21D;51701;45.036;38.924;2022-11-20T23:24:37;16.07;74.44
65122;HTU21D;51701;45.036;38.924;2022-11-20T23:27:02;16.11;74.06
65122;HTU21D;51701;45.036;38.924;2022-11-20T23:29:28;16.15;73.42
65122;HTU21D;51701;45.036;38.924;2022-11-20T23:31:54;16.21;73.24
65122;HTU21D;51701;45.036;38.924;2022-11-20T23:34:19;16.28;73.22
65122;HTU21D;51701;45.036;38.924;2022-11-20T23:36:45;16.37;73.48
65122;HTU21D;51701;45.036;38.924;2022-11-20T23:39:11;16.45;72.85
65122;HTU21D;51701;45.036;38.924;2022-11-20T23:41:39;16.54;73.20
65122;HTU21D;51701;45.036;38.924;2022-11-20T23:44:05;16.59;73.31
65122;HTU21D;51701;45.036;38.924;2022-11-20T23:46:30;16.64;73.01
65122;HTU21D;51701;45.036;38.924;2022-11-20T23:48:56;16.67;72.80
65122;HTU21D;51701;45.036;38.924;2022-11-20T23:51:22;16.73;72.73
65122;HTU21D;51701;45.036;38.924;2022-11-20T23:53:47;16.78;72.21
65122;HTU21D;51701;45.036;38.924;2022-11-20T23:56:13;16.87;72.49
65122;HTU21D;51701;45.036;38.924;2022-11-20T23:58:39;16.93;72.32
